ΕΜΥ, Εθνική Μετεωρολογική Υπηρεσία - Δελτία Καιρού, Προγνώσεις

ΑΕΡΟΝΑΥΤΙΛΙΑ

GREEK AIRPORTS CODES

LGAV 231220Z 21011KT 9999 FEW025 19/08 Q1018 RMK FEW080 NOSIG=

EUROPEAN AIRPORTS CODES

LFPO 231230Z 21011KT 180V240 9999 VCSH SCT023 FEW040TCUBKN049 08/03 Q0994 TEMPO 21015G25KT SHRA BKN014TCU=